Sneads, Florida
Current Conditions -  °F | °C
As of 7:53 AM on Friday 28 Nov 2014 (Local Time) from KMAI Reporting Station
Clear Clear  
Wind Chill: 33°   Ceiling: Unl
Heat Index: 39°   Visibility: 10mi
Dew Point: 32°   Wind: 9mph
Humidity: 76%   Direction: 30°NNE
Pressure: 30.42"   Gusts: NA
Location:  30.71°N, 84.92°W
Report Text: KMAI 281353Z AUTO 03008KT 10SM CLR 04/00 A3042 RMK AO2 SLP302 T00390000
Loading
Personal Weather Stations






























Interactive Weather Map New forecast layout! Learn more

10-Day Weather Forecast

Advertisements
Track Severe Weather on mobile